createdAt,value
2019-02-18T00:00:59.762Z,142.47
2019-02-18T00:03:30.538Z,139.03
2019-02-18T00:06:00.576Z,135.93
2019-02-18T00:08:30.567Z,137.37
2019-02-18T00:11:00.590Z,136.30
2019-02-18T00:13:30.603Z,137.10
2019-02-18T00:16:00.610Z,134.17
2019-02-18T00:18:30.587Z,133.63
2019-02-18T00:21:00.573Z,132.97
2019-02-18T00:23:30.622Z,133.50
2019-02-18T00:26:00.586Z,133.37
2019-02-18T00:28:30.592Z,129.87
2019-02-18T00:31:00.554Z,130.57
2019-02-18T00:33:30.539Z,130.47
2019-02-18T00:36:00.508Z,131.00
2019-02-18T00:38:30.566Z,130.47
2019-02-18T00:41:00.486Z,127.50
2019-02-18T00:43:30.454Z,125.90
2019-02-18T00:46:00.554Z,125.43
2019-02-18T00:48:30.534Z,123.07
2019-02-18T00:51:00.509Z,125.17
2019-02-18T00:53:30.399Z,124.00
2019-02-18T00:56:00.378Z,122.50
2019-02-18T00:58:30.447Z,122.30
2019-02-18T01:01:00.355Z,121.70
2019-02-18T01:03:30.335Z,120.87
2019-02-18T01:06:00.302Z,119.87
2019-02-18T01:08:30.316Z,118.93
2019-02-18T01:11:00.283Z,119.07
2019-02-18T01:13:30.260Z,120.00
2019-02-18T01:16:00.364Z,118.63
2019-02-18T01:18:30.873Z,117.83
2019-02-18T01:21:01.196Z,118.90
2019-02-18T01:23:31.468Z,112.90
2019-02-18T01:26:01.750Z,112.50
2019-02-18T01:28:32.011Z,111.97
2019-02-18T01:31:02.439Z,112.33
2019-02-18T01:33:32.785Z,109.57
2019-02-18T01:36:03.242Z,112.37
2019-02-18T01:38:33.588Z,109.00
2019-02-18T01:41:03.607Z,109.00
2019-02-18T01:43:34.582Z,107.77
2019-02-18T01:46:04.607Z,107.70
2019-02-18T01:48:34.583Z,106.40
2019-02-18T01:51:04.562Z,104.23
2019-02-18T01:53:34.454Z,105.47
2019-02-18T01:56:04.466Z,107.70
2019-02-18T01:58:34.439Z,105.40
2019-02-18T02:01:04.326Z,104.57
2019-02-18T02:03:34.368Z,101.97
2019-02-18T02:06:04.257Z,101.33
2019-02-18T02:08:34.246Z,99.73
2019-02-18T02:11:04.203Z,100.93
2019-02-18T02:13:35.797Z,101.27
2019-02-18T02:16:10.806Z,101.00
2019-02-18T02:18:40.826Z,99.00
2019-02-18T02:21:10.812Z,99.30
2019-02-18T02:23:40.829Z,98.17
2019-02-18T02:26:10.787Z,98.00
2019-02-18T02:28:40.780Z,97.47
2019-02-18T02:31:10.835Z,96.60
2019-02-18T02:33:40.795Z,96.47
2019-02-18T02:36:10.711Z,95.40
2019-02-18T02:38:40.687Z,95.63
2019-02-18T02:41:10.999Z,95.53
2019-02-18T02:43:41.140Z,94.63
2019-02-18T02:46:12.153Z,92.80
2019-02-18T02:48:42.275Z,90.50
2019-02-18T02:51:12.580Z,91.63
2019-02-18T02:53:42.810Z,89.30
2019-02-18T02:56:13.324Z,89.37
2019-02-18T02:58:43.948Z,89.80
2019-02-18T03:01:15.255Z,88.90
2019-02-18T03:03:45.947Z,89.67
2019-02-18T03:06:16.076Z,87.67
2019-02-18T03:08:46.154Z,86.27
2019-02-18T03:11:16.216Z,86.03
2019-02-18T03:13:46.275Z,86.90
2019-02-18T03:16:16.261Z,84.93
2019-02-18T03:18:46.238Z,84.10
2019-02-18T03:21:16.211Z,81.10
2019-02-18T03:23:46.205Z,83.47
2019-02-18T03:26:16.187Z,81.87
2019-02-18T03:29:40.358Z,82.97
2019-02-18T03:32:10.668Z,80.80
2019-02-18T03:34:43.418Z,81.30
2019-02-18T03:37:14.463Z,81.43
2019-02-18T03:39:44.522Z,81.43
2019-02-18T03:42:14.542Z,79.60
2019-02-18T03:44:44.510Z,78.83
2019-02-18T03:47:15.549Z,78.03
2019-02-18T03:49:45.582Z,77.83
2019-02-18T03:52:15.502Z,75.60
2019-02-18T03:54:45.466Z,77.33
2019-02-18T03:57:15.438Z,75.60
2019-02-18T03:59:45.339Z,76.00
2019-02-18T04:02:16.200Z,74.30
2019-02-18T04:04:46.242Z,74.23
2019-02-18T04:07:16.278Z,74.33
2019-02-18T04:09:46.226Z,71.97
2019-02-18T04:12:16.106Z,70.97
2019-02-18T04:14:46.051Z,71.23
2019-02-18T04:17:16.002Z,69.43
2019-02-18T04:19:45.951Z,70.33
2019-02-18T04:22:15.842Z,69.27
2019-02-18T04:24:45.717Z,68.50
2019-02-18T04:27:15.667Z,68.27
2019-02-18T04:29:45.615Z,67.90
2019-02-18T04:32:15.567Z,68.40
2019-02-18T04:34:45.446Z,68.77
2019-02-18T04:37:15.402Z,66.60
2019-02-18T04:39:45.391Z,68.23
2019-02-18T04:42:15.287Z,66.47
2019-02-18T04:44:45.351Z,67.17
2019-02-18T04:47:15.470Z,64.30
2019-02-18T04:49:45.666Z,64.67
2019-02-18T04:52:15.770Z,65.07
2019-02-18T04:54:45.828Z,63.00
2019-02-18T04:57:16.085Z,63.33
2019-02-18T04:59:46.223Z,62.40
2019-02-18T05:02:16.235Z,61.23
2019-02-18T05:04:46.204Z,61.90
2019-02-18T05:07:16.192Z,61.47
2019-02-18T05:09:46.158Z,62.37
2019-02-18T05:12:16.359Z,64.17
2019-02-18T05:14:46.358Z,63.90
2019-02-18T05:17:16.234Z,67.47
2019-02-18T05:19:46.238Z,66.13
2019-02-18T05:22:16.502Z,66.73
2019-02-18T05:24:47.528Z,65.73
2019-02-18T05:27:17.546Z,68.50
2019-02-18T05:29:47.417Z,67.97
2019-02-18T05:32:17.456Z,67.17
2019-02-18T05:34:47.490Z,67.97
2019-02-18T05:37:17.363Z,69.40
2019-02-18T05:39:47.319Z,74.60
2019-02-18T05:42:17.315Z,80.13
2019-02-18T05:44:47.386Z,89.43
2019-02-18T05:47:17.655Z,103.43
2019-02-18T05:49:47.940Z,105.10
2019-02-18T05:52:18.132Z,112.23
2019-02-18T05:54:48.310Z,113.13
2019-02-18T05:57:18.478Z,116.93
2019-02-18T05:59:48.558Z,119.47
2019-02-18T06:02:20.199Z,128.67
2019-02-18T06:04:50.528Z,128.27
2019-02-18T06:07:20.767Z,129.37
2019-02-18T06:09:50.900Z,132.63
2019-02-18T06:12:20.974Z,136.67
2019-02-18T06:14:51.065Z,135.63
2019-02-18T06:17:21.192Z,142.57
2019-02-18T06:19:51.322Z,144.33
2019-02-18T06:22:21.354Z,140.90
2019-02-18T06:24:51.360Z,146.27
2019-02-18T06:27:21.479Z,144.03
2019-02-18T06:29:51.575Z,143.67
2019-02-18T06:32:21.967Z,146.70
2019-02-18T06:34:52.101Z,141.73
2019-02-18T06:37:22.200Z,140.07
2019-02-18T06:39:52.317Z,140.87
2019-02-18T06:42:22.499Z,140.57
2019-02-18T06:45:12.009Z,141.53
2019-02-18T06:47:42.393Z,141.97
2019-02-18T06:50:12.471Z,142.07
2019-02-18T06:52:42.547Z,142.90
2019-02-18T06:55:12.684Z,141.20
2019-02-18T06:58:00.388Z,142.37
2019-02-18T07:00:39.272Z,141.63
2019-02-18T07:03:46.624Z,142.17
2019-02-18T07:06:42.015Z,143.73
2019-02-18T07:09:21.301Z,141.00
2019-02-18T07:12:13.367Z,144.00
2019-02-18T07:14:43.432Z,138.70
2019-02-18T07:17:13.420Z,139.73
2019-02-18T07:19:43.423Z,139.07
2019-02-18T07:22:13.512Z,138.40
2019-02-18T07:24:43.589Z,141.10
2019-02-18T07:27:13.647Z,136.80
2019-02-18T07:29:43.693Z,135.93
2019-02-18T07:32:13.793Z,139.63
2019-02-18T07:34:43.871Z,137.10
2019-02-18T07:37:13.976Z,136.93
2019-02-18T07:39:44.098Z,136.87
2019-02-18T07:42:14.097Z,137.33
2019-02-18T07:44:44.190Z,135.40
2019-02-18T07:47:14.331Z,133.73
2019-02-18T07:49:44.344Z,135.70
2019-02-18T07:52:14.412Z,132.60
2019-02-18T07:54:44.421Z,131.73
2019-02-18T07:57:14.535Z,132.57
2019-02-18T07:59:44.611Z,130.80
2019-02-18T08:02:14.688Z,129.03
2019-02-18T08:04:44.763Z,129.87
2019-02-18T08:07:14.854Z,130.50
2019-02-18T08:09:44.922Z,128.37
2019-02-18T08:12:15.054Z,129.87
2019-02-18T08:14:45.086Z,128.30
2019-02-18T08:17:15.192Z,125.87
2019-02-18T08:19:45.192Z,124.97
2019-02-18T08:22:15.285Z,125.63
2019-02-18T08:24:45.311Z,124.60
2019-02-18T08:27:15.317Z,124.93
2019-02-18T08:29:45.348Z,123.97
2019-02-18T08:32:15.462Z,122.87
2019-02-18T08:34:45.534Z,121.77
2019-02-18T08:37:15.592Z,119.33
2019-02-18T08:39:45.656Z,122.17
2019-02-18T08:42:15.695Z,120.63
2019-02-18T08:44:45.706Z,119.47
2019-02-18T08:47:15.835Z,118.93
2019-02-18T08:49:45.872Z,120.77
2019-02-18T08:52:15.964Z,118.03
2019-02-18T08:54:56.051Z,116.80
2019-02-18T08:57:17.659Z,116.73
2019-02-18T08:59:48.047Z,119.13
2019-02-18T09:02:18.418Z,118.07
2019-02-18T09:04:49.473Z,117.43
2019-02-18T09:07:20.703Z,116.33
2019-02-18T09:09:51.337Z,115.87
2019-02-18T09:12:21.510Z,113.40
2019-02-18T09:14:51.515Z,114.90
2019-02-18T09:17:21.499Z,116.10
2019-02-18T09:19:51.483Z,112.93
2019-02-18T09:22:46.450Z,111.97
2019-02-18T09:25:26.132Z,110.73
2019-02-18T09:27:56.107Z,334.73
2019-02-18T09:30:28.751Z,453.23
2019-02-18T09:32:58.933Z,444.87
2019-02-18T09:35:29.348Z,374.77
2019-02-18T09:37:59.561Z,370.30
2019-02-18T09:40:29.769Z,411.90
2019-02-18T09:42:59.851Z,497.90
2019-02-18T09:45:30.836Z,392.30
2019-02-18T09:48:00.866Z,352.90
2019-02-18T09:50:30.868Z,333.67
2019-02-18T09:53:02.522Z,327.87
2019-02-18T09:55:32.764Z,301.93
2019-02-18T09:58:03.293Z,302.37
2019-02-18T10:00:33.375Z,331.57
2019-02-18T10:03:03.436Z,313.10
2019-02-18T10:05:33.575Z,297.60
2019-02-18T10:08:03.603Z,280.93
2019-02-18T10:10:33.584Z,273.40
2019-02-18T10:13:03.566Z,268.67
2019-02-18T10:15:33.544Z,253.43
2019-02-18T10:18:03.830Z,255.00
2019-02-18T10:20:36.269Z,242.03
2019-02-18T10:23:06.408Z,231.17
2019-02-18T10:25:36.438Z,226.13
2019-02-18T10:28:07.610Z,221.63
2019-02-18T10:30:37.862Z,213.17
2019-02-18T10:33:08.191Z,209.83
2019-02-18T10:35:38.454Z,206.77
2019-02-18T10:38:08.887Z,199.93
2019-02-18T10:40:39.201Z,194.70
2019-02-18T10:43:09.424Z,186.20
2019-02-18T10:45:39.607Z,186.33
2019-02-18T10:48:09.759Z,179.63
2019-02-18T10:50:40.132Z,171.17
2019-02-18T10:53:10.264Z,172.57
2019-02-18T10:55:40.401Z,164.63
2019-02-18T10:58:10.539Z,238.93
2019-02-18T11:00:40.744Z,424.47
2019-02-18T11:03:11.526Z,444.93
2019-02-18T11:05:42.669Z,380.63
2019-02-18T11:08:13.039Z,343.57
2019-02-18T11:10:43.144Z,322.00
2019-02-18T11:13:13.429Z,321.80
2019-02-18T11:15:43.752Z,480.57
2019-02-18T11:18:13.847Z,584.17
2019-02-18T11:20:44.147Z,438.17
2019-02-18T11:23:14.435Z,416.03
2019-02-18T11:25:46.108Z,399.60
2019-02-18T11:28:16.373Z,376.57
2019-02-18T11:30:46.747Z,369.57
2019-02-18T11:33:17.003Z,359.30
2019-02-18T11:35:47.261Z,350.83
2019-02-18T11:38:17.886Z,329.70
2019-02-18T11:40:48.124Z,337.40
2019-02-18T11:43:18.471Z,462.07
2019-02-18T11:45:48.600Z,396.27
2019-02-18T11:48:18.891Z,364.47
2019-02-18T11:50:49.166Z,376.43
2019-02-18T11:53:19.444Z,359.43
2019-02-18T11:55:49.491Z,359.60
2019-02-18T11:58:19.859Z,363.77
2019-02-18T12:00:50.043Z,521.37
2019-02-18T12:03:20.132Z,502.63
2019-02-18T12:05:50.468Z,412.17
2019-02-18T12:08:20.616Z,387.20
2019-02-18T12:10:50.800Z,384.40
2019-02-18T12:13:20.968Z,485.07
2019-02-18T12:15:51.027Z,458.33
2019-02-18T12:18:21.098Z,461.73
2019-02-18T12:20:51.263Z,443.53
2019-02-18T12:23:21.304Z,428.83
2019-02-18T12:25:51.423Z,385.93
2019-02-18T12:28:21.486Z,363.50
2019-02-18T12:30:51.479Z,367.60
2019-02-18T12:33:21.568Z,364.93
2019-02-18T12:35:51.616Z,355.43
2019-02-18T12:38:21.767Z,347.77
2019-02-18T12:40:51.949Z,325.13
2019-02-18T12:43:21.999Z,325.60
2019-02-18T12:45:52.088Z,310.80
2019-02-18T12:48:23.348Z,298.20
2019-02-18T12:50:53.383Z,282.17
2019-02-18T12:53:24.495Z,286.40
2019-02-18T12:55:54.545Z,272.80
2019-02-18T12:58:24.507Z,243.00
2019-02-18T13:00:54.478Z,235.73
2019-02-18T13:03:24.852Z,240.20
2019-02-18T13:05:54.882Z,236.27
2019-02-18T13:08:25.204Z,240.47
2019-02-18T13:10:55.299Z,236.10
2019-02-18T13:13:25.346Z,235.33
2019-02-18T13:15:55.395Z,234.23
2019-02-18T13:18:25.455Z,229.87
2019-02-18T13:20:55.504Z,220.77
2019-02-18T13:23:25.535Z,216.93
2019-02-18T13:25:55.586Z,217.03
2019-02-18T13:28:25.535Z,213.73
2019-02-18T13:30:55.579Z,215.17
2019-02-18T13:33:25.547Z,210.53
2019-02-18T13:35:55.867Z,214.43
2019-02-18T13:38:25.884Z,203.43
2019-02-18T13:40:55.858Z,193.83
2019-02-18T13:43:25.806Z,192.77
2019-02-18T13:45:55.758Z,194.83
2019-02-18T13:48:25.778Z,190.40
2019-02-18T13:50:55.662Z,193.40
2019-02-18T13:53:25.713Z,191.57
2019-02-18T13:55:55.761Z,194.37
2019-02-18T13:58:25.734Z,192.17
2019-02-18T14:00:55.774Z,191.40
2019-02-18T14:03:26.127Z,192.60
2019-02-18T14:05:56.146Z,181.93
2019-02-18T14:08:26.179Z,182.07
2019-02-18T14:10:56.242Z,185.40
2019-02-18T14:13:26.270Z,188.93
2019-02-18T14:15:56.309Z,186.63
2019-02-18T14:18:26.290Z,191.93
2019-02-18T14:20:56.318Z,188.73
2019-02-18T14:23:26.282Z,185.43
2019-02-18T14:25:56.339Z,182.07
2019-02-18T14:28:26.322Z,172.37
2019-02-18T14:30:56.386Z,169.43
2019-02-18T14:33:26.355Z,169.07
2019-02-18T14:35:56.402Z,162.60
2019-02-18T14:38:26.361Z,166.43
2019-02-18T14:40:56.246Z,163.10
2019-02-18T14:43:26.191Z,165.83
2019-02-18T14:45:56.283Z,162.70
2019-02-18T14:48:26.243Z,162.23
2019-02-18T14:50:56.963Z,160.80
2019-02-18T14:53:27.110Z,157.53
2019-02-18T14:55:57.068Z,152.83
2019-02-18T14:58:27.117Z,151.83
2019-02-18T15:00:56.997Z,148.87
2019-02-18T15:03:27.055Z,148.13
2019-02-18T15:05:57.114Z,146.73
2019-02-18T15:08:27.194Z,144.57
2019-02-18T15:10:57.249Z,141.90
2019-02-18T15:13:27.602Z,136.60
2019-02-18T15:15:57.587Z,138.67
2019-02-18T15:18:27.638Z,136.37
2019-02-18T15:20:57.718Z,132.90
2019-02-18T15:23:27.770Z,125.90
2019-02-18T15:25:57.789Z,120.97
2019-02-18T15:28:27.869Z,121.63
2019-02-18T15:30:57.925Z,118.43
2019-02-18T15:33:27.982Z,118.70
2019-02-18T15:35:58.034Z,111.53
2019-02-18T15:38:28.089Z,110.93
2019-02-18T15:40:59.216Z,107.17
2019-02-18T15:43:29.279Z,107.97
2019-02-18T15:45:59.326Z,109.10
2019-02-18T15:48:29.389Z,107.20
2019-02-18T15:50:59.438Z,105.53
2019-02-18T15:53:30.590Z,107.10
2019-02-18T15:56:00.654Z,102.20
2019-02-18T15:58:30.727Z,108.00
2019-02-18T16:01:00.799Z,102.23
2019-02-18T16:03:30.854Z,99.50
2019-02-18T16:06:00.906Z,96.23
2019-02-18T16:08:31.274Z,97.70
2019-02-18T16:11:01.341Z,95.07
2019-02-18T16:13:31.459Z,95.63
2019-02-18T16:16:01.519Z,92.47
2019-02-18T16:18:31.570Z,93.47
2019-02-18T16:21:01.631Z,89.90
2019-02-18T16:23:32.023Z,90.30
2019-02-18T16:26:02.107Z,86.40
2019-02-18T16:28:32.275Z,86.53
2019-02-18T16:31:02.322Z,90.23
2019-02-18T16:33:32.398Z,97.47
2019-02-18T16:36:02.527Z,94.40
2019-02-18T16:38:32.574Z,100.43
2019-02-18T16:41:02.648Z,102.63
2019-02-18T16:43:33.222Z,102.00
2019-02-18T16:46:03.265Z,102.90
2019-02-18T16:48:33.630Z,101.93
2019-02-18T16:51:03.626Z,101.37
2019-02-18T16:53:33.686Z,100.57
2019-02-18T16:56:03.763Z,96.40
2019-02-18T16:58:33.807Z,96.67
2019-02-18T17:01:04.830Z,96.07
2019-02-18T17:03:35.378Z,95.03
2019-02-18T17:06:05.471Z,91.67
2019-02-18T17:08:35.442Z,88.57
2019-02-18T17:11:05.430Z,91.80
2019-02-18T17:13:35.522Z,89.37
2019-02-18T17:16:05.571Z,84.27
2019-02-18T17:18:36.914Z,80.70
2019-02-18T17:21:06.954Z,82.27
2019-02-18T17:23:37.017Z,80.77
2019-02-18T17:26:07.090Z,80.30
2019-02-18T17:28:37.139Z,78.63
2019-02-18T17:31:07.213Z,75.80
2019-02-18T17:33:37.275Z,76.17
2019-02-18T17:36:07.324Z,78.63
2019-02-18T17:38:37.424Z,76.57
2019-02-18T17:41:07.470Z,74.47
2019-02-18T17:43:37.558Z,73.43
2019-02-18T17:46:07.630Z,72.80
2019-02-18T17:48:37.667Z,74.53
2019-02-18T17:51:07.768Z,73.83
2019-02-18T17:53:37.846Z,70.43
2019-02-18T17:56:07.814Z,70.87
2019-02-18T17:58:37.878Z,71.00
2019-02-18T18:01:08.222Z,67.13
2019-02-18T18:03:38.284Z,65.43
2019-02-18T18:06:08.330Z,64.83
2019-02-18T18:08:38.380Z,66.13
2019-02-18T18:11:08.462Z,66.33
2019-02-18T18:13:38.437Z,67.70
2019-02-18T18:16:08.507Z,69.77
2019-02-18T18:18:38.565Z,69.10
2019-02-18T18:21:08.636Z,71.73
2019-02-18T18:23:38.690Z,72.40
2019-02-18T18:26:11.274Z,74.33
2019-02-18T18:28:41.645Z,74.33
2019-02-18T18:31:11.626Z,75.13
2019-02-18T18:33:41.694Z,74.97
2019-02-18T18:36:11.755Z,75.50
2019-02-18T18:38:41.818Z,75.50
2019-02-18T18:41:11.921Z,75.77
2019-02-18T18:43:41.946Z,76.53
2019-02-18T18:46:11.963Z,77.53
2019-02-18T18:48:41.943Z,76.03
2019-02-18T18:51:11.975Z,75.53
2019-02-18T18:53:42.044Z,78.93
2019-02-18T18:56:12.390Z,77.37
2019-02-18T18:58:42.438Z,76.63
2019-02-18T19:01:12.478Z,77.57
2019-02-18T19:03:42.558Z,76.83
2019-02-18T19:06:12.601Z,80.33
2019-02-18T19:08:42.743Z,81.90
2019-02-18T19:11:12.822Z,80.77
2019-02-18T19:13:42.931Z,82.27
2019-02-18T19:16:12.974Z,86.70
2019-02-18T19:18:42.942Z,89.27
2019-02-18T19:21:12.998Z,95.23
2019-02-18T19:23:43.066Z,96.00
2019-02-18T19:26:13.138Z,94.90
2019-02-18T19:28:44.173Z,97.57
2019-02-18T19:31:14.154Z,99.00
2019-02-18T19:33:44.210Z,101.60
2019-02-18T19:36:14.473Z,105.23
2019-02-18T19:38:44.521Z,108.60
2019-02-18T19:41:14.574Z,111.47
2019-02-18T19:43:50.222Z,112.93
2019-02-18T19:46:16.318Z,115.83
2019-02-18T19:48:48.322Z,112.90
2019-02-18T19:51:18.341Z,112.47
2019-02-18T19:53:48.405Z,111.00
2019-02-18T19:56:18.539Z,114.00
2019-02-18T19:58:48.591Z,116.30
2019-02-18T20:01:18.650Z,119.67
2019-02-18T20:03:48.634Z,120.70
2019-02-18T20:06:18.729Z,127.40
2019-02-18T20:08:48.799Z,127.07
2019-02-18T20:11:18.847Z,135.50
2019-02-18T20:13:48.957Z,135.13
2019-02-18T20:16:19.347Z,135.23
2019-02-18T20:18:49.429Z,139.20
2019-02-18T20:21:19.470Z,141.37
2019-02-18T20:23:49.460Z,137.93
2019-02-18T20:26:19.480Z,140.73
2019-02-18T20:28:49.576Z,140.73
2019-02-18T20:31:19.629Z,144.63
2019-02-18T20:33:49.686Z,153.83
2019-02-18T20:36:19.761Z,154.10
2019-02-18T20:38:49.743Z,155.27
2019-02-18T20:41:19.830Z,161.07
2019-02-18T20:43:50.110Z,158.40
2019-02-18T20:46:20.107Z,155.33
2019-02-18T20:48:50.109Z,153.20
2019-02-18T20:51:20.243Z,164.93
2019-02-18T20:53:50.337Z,171.40
2019-02-18T20:56:20.358Z,171.67
2019-02-18T20:58:50.361Z,175.43
2019-02-18T21:01:20.429Z,168.30
2019-02-18T21:03:50.427Z,165.47
2019-02-18T21:06:20.506Z,160.27
2019-02-18T21:08:50.604Z,162.70
2019-02-18T21:11:20.970Z,161.00
2019-02-18T21:13:50.972Z,158.27
2019-02-18T21:16:20.981Z,162.37
2019-02-18T21:18:51.042Z,164.60
2019-02-18T21:21:21.034Z,166.97
2019-02-18T21:23:51.118Z,163.57
2019-02-18T21:26:21.092Z,166.33
2019-02-18T21:28:51.094Z,175.10
2019-02-18T21:31:21.173Z,178.67
2019-02-18T21:33:51.242Z,180.50
2019-02-18T21:36:21.261Z,178.47
2019-02-18T21:38:51.537Z,183.47
2019-02-18T21:41:21.586Z,178.27
2019-02-18T21:43:51.654Z,172.27
2019-02-18T21:46:21.718Z,173.93
2019-02-18T21:48:51.778Z,179.97
2019-02-18T21:51:21.856Z,175.33
2019-02-18T21:53:52.015Z,181.10
2019-02-18T21:56:22.022Z,179.07
2019-02-18T21:58:52.029Z,180.37
2019-02-18T22:01:22.091Z,181.97
2019-02-18T22:03:52.065Z,184.50
2019-02-18T22:06:22.133Z,186.47
2019-02-18T22:08:52.206Z,187.07
2019-02-18T22:11:22.266Z,189.27
2019-02-18T22:13:52.326Z,185.20
2019-02-18T22:16:22.306Z,186.53
2019-02-18T22:18:52.358Z,183.77
2019-02-18T22:21:22.718Z,182.57
2019-02-18T22:23:52.832Z,185.60
2019-02-18T22:26:22.911Z,189.10
2019-02-18T22:28:52.974Z,187.37
2019-02-18T22:31:23.025Z,184.20
2019-02-18T22:33:53.011Z,190.97
2019-02-18T22:36:24.012Z,187.53
2019-02-18T22:38:54.140Z,188.40
2019-02-18T22:41:24.191Z,190.30
2019-02-18T22:43:54.276Z,190.63
2019-02-18T22:46:24.343Z,188.13
2019-02-18T22:48:54.322Z,187.20
2019-02-18T22:51:24.689Z,184.67
2019-02-18T22:53:54.763Z,181.30
2019-02-18T22:56:24.861Z,184.53
2019-02-18T22:58:54.917Z,181.47
2019-02-18T23:01:24.922Z,183.73
2019-02-18T23:03:54.929Z,184.10
2019-02-18T23:06:25.467Z,185.47
2019-02-18T23:08:55.525Z,181.57
2019-02-18T23:11:25.630Z,182.10
2019-02-18T23:13:55.676Z,176.63
2019-02-18T23:16:25.747Z,186.47
2019-02-18T23:18:55.809Z,184.07
2019-02-18T23:21:26.117Z,177.70
2019-02-18T23:23:56.126Z,180.97
2019-02-18T23:26:27.074Z,176.37
2019-02-18T23:28:57.062Z,177.63
2019-02-18T23:31:27.051Z,181.60
2019-02-18T23:33:57.129Z,175.10
2019-02-18T23:36:27.198Z,176.37
2019-02-18T23:38:57.192Z,177.13
2019-02-18T23:41:27.171Z,175.40
2019-02-18T23:43:57.250Z,175.50
2019-02-18T23:46:27.234Z,173.23
2019-02-18T23:48:57.226Z,169.10
2019-02-18T23:51:27.219Z,173.77
2019-02-18T23:53:57.226Z,174.63
2019-02-18T23:56:27.209Z,170.67
2019-02-18T23:58:57.196Z,167.80
